sensor_id;sensor_type;location;lat;lon;timestamp;temperature;humidity
43920;DHT22;29578;51.946;5.874;2023-03-24T00:00:43;12.10;87.40
43920;DHT22;29578;51.946;5.874;2023-03-24T00:03:09;12.10;87.40
43920;DHT22;29578;51.946;5.874;2023-03-24T00:05:35;12.10;87.40
43920;DHT22;29578;51.946;5.874;2023-03-24T00:08:00;12.10;87.40
43920;DHT22;29578;51.946;5.874;2023-03-24T00:10:27;12.10;87.50
43920;DHT22;29578;51.946;5.874;2023-03-24T00:12:55;12.10;87.50
43920;DHT22;29578;51.946;5.874;2023-03-24T00:15:23;12.00;87.50
43920;DHT22;29578;51.946;5.874;2023-03-24T00:17:48;12.00;87.60
43920;DHT22;29578;51.946;5.874;2023-03-24T00:20:14;12.10;87.70
43920;DHT22;29578;51.946;5.874;2023-03-24T00:22:42;12.00;87.70
43920;DHT22;29578;51.946;5.874;2023-03-24T00:25:13;12.00;87.70
43920;DHT22;29578;51.946;5.874;2023-03-24T00:27:38;12.10;87.70
43920;DHT22;29578;51.946;5.874;2023-03-24T00:30:05;12.00;87.70
43920;DHT22;29578;51.946;5.874;2023-03-24T00:32:31;12.00;87.80
43920;DHT22;29578;51.946;5.874;2023-03-24T00:34:57;12.00;87.70
43920;DHT22;29578;51.946;5.874;2023-03-24T00:37:22;12.00;87.80
43920;DHT22;29578;51.946;5.874;2023-03-24T00:39:48;12.00;87.80
43920;DHT22;29578;51.946;5.874;2023-03-24T00:42:14;12.00;87.90
43920;DHT22;29578;51.946;5.874;2023-03-24T00:44:40;12.00;87.90
43920;DHT22;29578;51.946;5.874;2023-03-24T00:47:06;12.00;87.90
43920;DHT22;29578;51.946;5.874;2023-03-24T00:49:31;12.00;87.90
43920;DHT22;29578;51.946;5.874;2023-03-24T00:52:14;12.00;88.00
43920;DHT22;29578;51.946;5.874;2023-03-24T00:54:42;12.10;88.00
43920;DHT22;29578;51.946;5.874;2023-03-24T00:57:10;12.10;88.00
43920;DHT22;29578;51.946;5.874;2023-03-24T00:59:37;12.10;88.00
43920;DHT22;29578;51.946;5.874;2023-03-24T01:02:08;12.10;87.90
43920;DHT22;29578;51.946;5.874;2023-03-24T01:04:39;12.10;88.00
43920;DHT22;29578;51.946;5.874;2023-03-24T01:07:05;12.10;87.90
43920;DHT22;29578;51.946;5.874;2023-03-24T01:09:33;12.10;87.90
43920;DHT22;29578;51.946;5.874;2023-03-24T01:12:01;12.10;87.90
43920;DHT22;29578;51.946;5.874;2023-03-24T01:14:26;12.20;88.10
43920;DHT22;29578;51.946;5.874;2023-03-24T01:16:52;12.20;87.90
43920;DHT22;29578;51.946;5.874;2023-03-24T01:19:18;12.20;88.00
43920;DHT22;29578;51.946;5.874;2023-03-24T01:21:43;12.20;87.90
43920;DHT22;29578;51.946;5.874;2023-03-24T01:24:09;12.30;88.00
43920;DHT22;29578;51.946;5.874;2023-03-24T01:26:34;12.30;88.00
43920;DHT22;29578;51.946;5.874;2023-03-24T01:29:00;12.20;87.90
43920;DHT22;29578;51.946;5.874;2023-03-24T01:31:25;12.30;87.90
43920;DHT22;29578;51.946;5.874;2023-03-24T01:33:51;12.20;87.90
43920;DHT22;29578;51.946;5.874;2023-03-24T01:36:16;12.30;88.00
43920;DHT22;29578;51.946;5.874;2023-03-24T01:38:42;12.40;88.00
43920;DHT22;29578;51.946;5.874;2023-03-24T01:41:07;12.40;87.90
43920;DHT22;29578;51.946;5.874;2023-03-24T01:43:34;12.40;87.90
43920;DHT22;29578;51.946;5.874;2023-03-24T01:46:12;12.40;87.90
43920;DHT22;29578;51.946;5.874;2023-03-24T01:48:40;12.40;88.00
43920;DHT22;29578;51.946;5.874;2023-03-24T01:51:25;12.40;88.00
43920;DHT22;29578;51.946;5.874;2023-03-24T01:53:55;12.50;88.10
43920;DHT22;29578;51.946;5.874;2023-03-24T01:56:21;12.40;88.10
43920;DHT22;29578;51.946;5.874;2023-03-24T01:58:50;12.40;88.10
43920;DHT22;29578;51.946;5.874;2023-03-24T02:01:17;12.40;88.20
43920;DHT22;29578;51.946;5.874;2023-03-24T02:03:43;12.40;88.20
43920;DHT22;29578;51.946;5.874;2023-03-24T02:06:09;12.40;88.20
43920;DHT22;29578;51.946;5.874;2023-03-24T02:11:13;12.30;88.20
43920;DHT22;29578;51.946;5.874;2023-03-24T02:13:38;12.40;88.40
43920;DHT22;29578;51.946;5.874;2023-03-24T02:16:18;12.40;88.40
43920;DHT22;29578;51.946;5.874;2023-03-24T02:29:45;12.40;88.60
43920;DHT22;29578;51.946;5.874;2023-03-24T02:32:22;12.40;88.70
43920;DHT22;29578;51.946;5.874;2023-03-24T02:35:13;12.40;88.60
43920;DHT22;29578;51.946;5.874;2023-03-24T02:37:44;12.50;88.80
43920;DHT22;29578;51.946;5.874;2023-03-24T02:40:21;12.40;88.80
43920;DHT22;29578;51.946;5.874;2023-03-24T02:42:54;12.40;88.80
43920;DHT22;29578;51.946;5.874;2023-03-24T02:45:34;12.40;88.90
43920;DHT22;29578;51.946;5.874;2023-03-24T02:53:28;12.50;89.20
43920;DHT22;29578;51.946;5.874;2023-03-24T02:55:59;12.40;89.10
43920;DHT22;29578;51.946;5.874;2023-03-24T03:01:11;12.40;89.20
43920;DHT22;29578;51.946;5.874;2023-03-24T03:03:40;12.50;89.30
43920;DHT22;29578;51.946;5.874;2023-03-24T03:06:11;12.50;89.30
43920;DHT22;29578;51.946;5.874;2023-03-24T03:08:37;12.50;89.30
43920;DHT22;29578;51.946;5.874;2023-03-24T03:11:04;12.50;89.30
43920;DHT22;29578;51.946;5.874;2023-03-24T03:13:39;12.50;89.40
43920;DHT22;29578;51.946;5.874;2023-03-24T03:16:09;12.50;89.40
43920;DHT22;29578;51.946;5.874;2023-03-24T03:18:39;12.40;89.50
43920;DHT22;29578;51.946;5.874;2023-03-24T03:21:07;12.50;89.70
43920;DHT22;29578;51.946;5.874;2023-03-24T03:23:35;12.40;89.80
43920;DHT22;29578;51.946;5.874;2023-03-24T03:26:02;12.40;89.90
43920;DHT22;29578;51.946;5.874;2023-03-24T03:28:30;12.30;89.90
43920;DHT22;29578;51.946;5.874;2023-03-24T03:30:58;12.20;90.00
43920;DHT22;29578;51.946;5.874;2023-03-24T03:33:30;12.20;90.10
43920;DHT22;29578;51.946;5.874;2023-03-24T03:36:01;12.00;90.10
43920;DHT22;29578;51.946;5.874;2023-03-24T03:38:30;11.90;90.20
43920;DHT22;29578;51.946;5.874;2023-03-24T03:40:58;11.80;90.20
43920;DHT22;29578;51.946;5.874;2023-03-24T03:43:24;11.80;90.20
43920;DHT22;29578;51.946;5.874;2023-03-24T03:45:50;11.70;90.20
43920;DHT22;29578;51.946;5.874;2023-03-24T03:48:16;11.70;90.30
43920;DHT22;29578;51.946;5.874;2023-03-24T03:50:42;11.60;90.20
43920;DHT22;29578;51.946;5.874;2023-03-24T03:53:08;11.60;90.30
43920;DHT22;29578;51.946;5.874;2023-03-24T03:55:34;11.50;90.20
43920;DHT22;29578;51.946;5.874;2023-03-24T03:58:00;11.50;90.30
43920;DHT22;29578;51.946;5.874;2023-03-24T04:00:26;11.50;90.30
43920;DHT22;29578;51.946;5.874;2023-03-24T04:05:40;11.50;90.30
43920;DHT22;29578;51.946;5.874;2023-03-24T04:13:36;11.10;90.30
43920;DHT22;29578;51.946;5.874;2023-03-24T04:16:13;11.00;90.20
43920;DHT22;29578;51.946;5.874;2023-03-24T04:18:45;11.10;90.30
43920;DHT22;29578;51.946;5.874;2023-03-24T04:21:23;11.00;90.40
43920;DHT22;29578;51.946;5.874;2023-03-24T04:24:04;10.90;90.40
43920;DHT22;29578;51.946;5.874;2023-03-24T04:26:40;10.80;90.40
43920;DHT22;29578;51.946;5.874;2023-03-24T04:29:14;10.80;90.40
43920;DHT22;29578;51.946;5.874;2023-03-24T04:31:44;10.80;90.40
43920;DHT22;29578;51.946;5.874;2023-03-24T04:34:19;10.80;90.40
43920;DHT22;29578;51.946;5.874;2023-03-24T04:36:48;10.80;90.30
43920;DHT22;29578;51.946;5.874;2023-03-24T04:39:20;10.70;90.30
43920;DHT22;29578;51.946;5.874;2023-03-24T04:41:53;10.70;90.20
43920;DHT22;29578;51.946;5.874;2023-03-24T04:44:20;10.70;90.20
43920;DHT22;29578;51.946;5.874;2023-03-24T04:46:48;10.70;90.20
43920;DHT22;29578;51.946;5.874;2023-03-24T04:49:14;10.70;90.10
43920;DHT22;29578;51.946;5.874;2023-03-24T04:51:40;10.60;90.10
43920;DHT22;29578;51.946;5.874;2023-03-24T04:54:06;10.70;90.10
43920;DHT22;29578;51.946;5.874;2023-03-24T04:56:42;10.70;90.10
43920;DHT22;29578;51.946;5.874;2023-03-24T04:59:10;10.60;90.30
43920;DHT22;29578;51.946;5.874;2023-03-24T05:01:37;10.60;90.00
43920;DHT22;29578;51.946;5.874;2023-03-24T05:04:03;10.60;90.00
43920;DHT22;29578;51.946;5.874;2023-03-24T05:06:29;10.50;90.00
43920;DHT22;29578;51.946;5.874;2023-03-24T05:08:55;10.50;90.00
43920;DHT22;29578;51.946;5.874;2023-03-24T05:11:23;10.50;90.00
43920;DHT22;29578;51.946;5.874;2023-03-24T05:13:48;10.40;90.00
43920;DHT22;29578;51.946;5.874;2023-03-24T05:16:14;10.40;90.30
43920;DHT22;29578;51.946;5.874;2023-03-24T05:18:40;10.20;90.00
43920;DHT22;29578;51.946;5.874;2023-03-24T05:21:05;10.20;90.10
43920;DHT22;29578;51.946;5.874;2023-03-24T05:23:31;10.20;90.20
43920;DHT22;29578;51.946;5.874;2023-03-24T05:25:57;10.10;90.20
43920;DHT22;29578;51.946;5.874;2023-03-24T05:28:23;10.10;90.30
43920;DHT22;29578;51.946;5.874;2023-03-24T05:30:48;10.00;90.20
43920;DHT22;29578;51.946;5.874;2023-03-24T05:33:14;10.00;90.30
43920;DHT22;29578;51.946;5.874;2023-03-24T05:35:40;9.90;90.20
43920;DHT22;29578;51.946;5.874;2023-03-24T05:38:05;10.00;90.30
43920;DHT22;29578;51.946;5.874;2023-03-24T05:40:31;9.90;90.30
43920;DHT22;29578;51.946;5.874;2023-03-24T05:42:56;9.90;90.20
43920;DHT22;29578;51.946;5.874;2023-03-24T05:45:22;9.90;90.20
43920;DHT22;29578;51.946;5.874;2023-03-24T05:47:49;9.80;90.20
43920;DHT22;29578;51.946;5.874;2023-03-24T05:50:15;9.80;90.20
43920;DHT22;29578;51.946;5.874;2023-03-24T05:52:41;9.90;90.20
43920;DHT22;29578;51.946;5.874;2023-03-24T05:55:07;9.90;90.20
43920;DHT22;29578;51.946;5.874;2023-03-24T05:57:33;9.80;90.10
43920;DHT22;29578;51.946;5.874;2023-03-24T06:00:01;9.90;90.10
43920;DHT22;29578;51.946;5.874;2023-03-24T06:02:29;10.00;90.10
43920;DHT22;29578;51.946;5.874;2023-03-24T06:04:55;10.00;90.10
43920;DHT22;29578;51.946;5.874;2023-03-24T06:07:22;10.00;90.00
43920;DHT22;29578;51.946;5.874;2023-03-24T06:09:50;10.00;90.00
43920;DHT22;29578;51.946;5.874;2023-03-24T06:12:17;10.00;90.00
43920;DHT22;29578;51.946;5.874;2023-03-24T06:14:42;10.00;89.90
43920;DHT22;29578;51.946;5.874;2023-03-24T06:17:09;10.00;89.70
43920;DHT22;29578;51.946;5.874;2023-03-24T06:19:39;10.00;89.80
43920;DHT22;29578;51.946;5.874;2023-03-24T06:22:14;10.10;89.80
43920;DHT22;29578;51.946;5.874;2023-03-24T06:24:40;10.30;89.70
43920;DHT22;29578;51.946;5.874;2023-03-24T06:27:06;10.20;89.50
43920;DHT22;29578;51.946;5.874;2023-03-24T06:29:33;10.20;89.40
43920;DHT22;29578;51.946;5.874;2023-03-24T06:31:58;10.40;89.30
43920;DHT22;29578;51.946;5.874;2023-03-24T06:34:24;10.40;89.10
43920;DHT22;29578;51.946;5.874;2023-03-24T06:36:50;10.40;89.00
43920;DHT22;29578;51.946;5.874;2023-03-24T06:39:16;10.40;88.90
43920;DHT22;29578;51.946;5.874;2023-03-24T06:41:42;10.40;88.90
43920;DHT22;29578;51.946;5.874;2023-03-24T06:44:07;10.40;88.90
43920;DHT22;29578;51.946;5.874;2023-03-24T06:46:33;10.40;88.80
43920;DHT22;29578;51.946;5.874;2023-03-24T06:48:58;10.50;88.80
43920;DHT22;29578;51.946;5.874;2023-03-24T06:51:24;10.50;88.70
43920;DHT22;29578;51.946;5.874;2023-03-24T06:53:49;10.50;88.70
43920;DHT22;29578;51.946;5.874;2023-03-24T06:56:15;10.50;88.70
43920;DHT22;29578;51.946;5.874;2023-03-24T06:58:42;10.50;88.60
43920;DHT22;29578;51.946;5.874;2023-03-24T07:01:07;10.60;88.50
43920;DHT22;29578;51.946;5.874;2023-03-24T07:03:33;10.60;88.40
43920;DHT22;29578;51.946;5.874;2023-03-24T07:05:58;10.60;88.30
43920;DHT22;29578;51.946;5.874;2023-03-24T07:08:24;10.70;88.30
43920;DHT22;29578;51.946;5.874;2023-03-24T07:10:50;10.70;88.20
43920;DHT22;29578;51.946;5.874;2023-03-24T07:13:16;10.70;88.10
43920;DHT22;29578;51.946;5.874;2023-03-24T07:15:41;10.80;88.10
43920;DHT22;29578;51.946;5.874;2023-03-24T07:18:07;10.80;88.00
43920;DHT22;29578;51.946;5.874;2023-03-24T07:20:32;10.80;87.90
43920;DHT22;29578;51.946;5.874;2023-03-24T07:22:58;10.90;87.90
43920;DHT22;29578;51.946;5.874;2023-03-24T07:25:23;10.90;87.80
43920;DHT22;29578;51.946;5.874;2023-03-24T07:27:53;11.00;87.70
43920;DHT22;29578;51.946;5.874;2023-03-24T07:30:20;11.00;87.60
43920;DHT22;29578;51.946;5.874;2023-03-24T07:32:46;11.10;87.50
43920;DHT22;29578;51.946;5.874;2023-03-24T07:35:13;11.20;87.50
43920;DHT22;29578;51.946;5.874;2023-03-24T07:37:41;11.10;87.40
43920;DHT22;29578;51.946;5.874;2023-03-24T07:40:07;11.30;87.40
43920;DHT22;29578;51.946;5.874;2023-03-24T07:42:36;11.30;87.30
43920;DHT22;29578;51.946;5.874;2023-03-24T07:45:03;11.20;87.10
43920;DHT22;29578;51.946;5.874;2023-03-24T07:47:29;11.40;87.20
43920;DHT22;29578;51.946;5.874;2023-03-24T07:49:56;11.40;87.00
43920;DHT22;29578;51.946;5.874;2023-03-24T07:52:21;11.40;86.80
43920;DHT22;29578;51.946;5.874;2023-03-24T07:54:47;11.40;86.80
43920;DHT22;29578;51.946;5.874;2023-03-24T07:57:12;11.50;86.70
43920;DHT22;29578;51.946;5.874;2023-03-24T07:59:38;11.60;86.80
43920;DHT22;29578;51.946;5.874;2023-03-24T08:02:03;11.50;86.80
43920;DHT22;29578;51.946;5.874;2023-03-24T08:04:29;11.40;86.80
43920;DHT22;29578;51.946;5.874;2023-03-24T08:06:56;11.40;86.80
43920;DHT22;29578;51.946;5.874;2023-03-24T08:09:22;11.50;86.80
43920;DHT22;29578;51.946;5.874;2023-03-24T08:11:49;11.60;86.60
43920;DHT22;29578;51.946;5.874;2023-03-24T08:14:15;11.60;86.60
43920;DHT22;29578;51.946;5.874;2023-03-24T08:16:40;11.60;86.50
43920;DHT22;29578;51.946;5.874;2023-03-24T08:19:06;11.70;86.60
43920;DHT22;29578;51.946;5.874;2023-03-24T08:21:32;11.80;86.30
43920;DHT22;29578;51.946;5.874;2023-03-24T08:23:57;12.00;86.00
43920;DHT22;29578;51.946;5.874;2023-03-24T08:26:23;12.00;85.70
43920;DHT22;29578;51.946;5.874;2023-03-24T08:28:51;12.10;85.60
43920;DHT22;29578;51.946;5.874;2023-03-24T08:31:16;12.10;85.30
43920;DHT22;29578;51.946;5.874;2023-03-24T08:33:42;12.20;85.20
43920;DHT22;29578;51.946;5.874;2023-03-24T08:36:07;12.10;85.20
43920;DHT22;29578;51.946;5.874;2023-03-24T08:38:33;12.10;85.20
43920;DHT22;29578;51.946;5.874;2023-03-24T08:41:03;12.10;85.10
43920;DHT22;29578;51.946;5.874;2023-03-24T08:43:31;12.10;85.10
43920;DHT22;29578;51.946;5.874;2023-03-24T08:45:57;12.20;85.10
43920;DHT22;29578;51.946;5.874;2023-03-24T08:48:23;12.10;85.20
43920;DHT22;29578;51.946;5.874;2023-03-24T08:50:49;12.10;85.30
43920;DHT22;29578;51.946;5.874;2023-03-24T08:53:14;12.10;85.20
43920;DHT22;29578;51.946;5.874;2023-03-24T08:55:40;12.20;85.10
43920;DHT22;29578;51.946;5.874;2023-03-24T08:58:11;12.20;85.10
43920;DHT22;29578;51.946;5.874;2023-03-24T09:00:37;12.30;84.90
43920;DHT22;29578;51.946;5.874;2023-03-24T09:03:04;12.40;84.60
43920;DHT22;29578;51.946;5.874;2023-03-24T09:05:31;12.30;84.50
43920;DHT22;29578;51.946;5.874;2023-03-24T09:07:56;12.40;84.40
43920;DHT22;29578;51.946;5.874;2023-03-24T09:10:24;12.40;84.20
43920;DHT22;29578;51.946;5.874;2023-03-24T09:12:50;12.50;84.40
43920;DHT22;29578;51.946;5.874;2023-03-24T09:15:16;12.60;84.10
43920;DHT22;29578;51.946;5.874;2023-03-24T09:17:42;12.60;83.70
43920;DHT22;29578;51.946;5.874;2023-03-24T09:20:08;12.60;83.70
43920;DHT22;29578;51.946;5.874;2023-03-24T09:22:37;12.60;83.70
43920;DHT22;29578;51.946;5.874;2023-03-24T09:25:03;12.60;83.40
43920;DHT22;29578;51.946;5.874;2023-03-24T09:27:28;12.80;83.40
43920;DHT22;29578;51.946;5.874;2023-03-24T09:29:55;12.80;83.20
43920;DHT22;29578;51.946;5.874;2023-03-24T09:32:20;12.80;83.20
43920;DHT22;29578;51.946;5.874;2023-03-24T09:34:46;12.90;83.20
43920;DHT22;29578;51.946;5.874;2023-03-24T09:37:11;12.90;83.00
43920;DHT22;29578;51.946;5.874;2023-03-24T09:39:37;12.90;82.90
43920;DHT22;29578;51.946;5.874;2023-03-24T09:42:03;13.00;82.80
43920;DHT22;29578;51.946;5.874;2023-03-24T09:44:33;13.00;82.50
43920;DHT22;29578;51.946;5.874;2023-03-24T09:49:41;12.90;82.70
43920;DHT22;29578;51.946;5.874;2023-03-24T09:52:09;12.90;82.80
43920;DHT22;29578;51.946;5.874;2023-03-24T09:54:42;13.00;82.90
43920;DHT22;29578;51.946;5.874;2023-03-24T09:57:14;12.90;82.80
43920;DHT22;29578;51.946;5.874;2023-03-24T09:59:42;13.00;82.60
43920;DHT22;29578;51.946;5.874;2023-03-24T10:02:15;12.90;82.20
43920;DHT22;29578;51.946;5.874;2023-03-24T10:04:41;13.00;82.30
43920;DHT22;29578;51.946;5.874;2023-03-24T10:07:08;13.00;82.30
43920;DHT22;29578;51.946;5.874;2023-03-24T10:09:40;12.90;82.50
43920;DHT22;29578;51.946;5.874;2023-03-24T10:12:11;12.90;82.50
43920;DHT22;29578;51.946;5.874;2023-03-24T10:14:44;12.80;82.70
43920;DHT22;29578;51.946;5.874;2023-03-24T10:17:16;12.70;82.90
43920;DHT22;29578;51.946;5.874;2023-03-24T10:19:47;12.70;83.10
43920;DHT22;29578;51.946;5.874;2023-03-24T10:22:20;12.70;83.00
43920;DHT22;29578;51.946;5.874;2023-03-24T10:24:54;12.60;83.10
43920;DHT22;29578;51.946;5.874;2023-03-24T10:27:32;12.60;83.20
43920;DHT22;29578;51.946;5.874;2023-03-24T10:30:02;12.70;83.20
43920;DHT22;29578;51.946;5.874;2023-03-24T10:32:31;12.80;83.10
43920;DHT22;29578;51.946;5.874;2023-03-24T10:34:59;12.90;83.20
43920;DHT22;29578;51.946;5.874;2023-03-24T10:37:31;13.10;82.80
43920;DHT22;29578;51.946;5.874;2023-03-24T10:39:57;13.20;82.60
43920;DHT22;29578;51.946;5.874;2023-03-24T10:42:25;13.30;82.30
43920;DHT22;29578;51.946;5.874;2023-03-24T10:44:52;13.40;81.60
43920;DHT22;29578;51.946;5.874;2023-03-24T10:47:25;13.50;81.10
43920;DHT22;29578;51.946;5.874;2023-03-24T10:49:54;13.40;80.60
43920;DHT22;29578;51.946;5.874;2023-03-24T10:52:21;13.30;80.80
43920;DHT22;29578;51.946;5.874;2023-03-24T10:57:25;13.10;81.40
43920;DHT22;29578;51.946;5.874;2023-03-24T10:59:52;13.00;81.50
43920;DHT22;29578;51.946;5.874;2023-03-24T11:02:21;12.90;81.80
43920;DHT22;29578;51.946;5.874;2023-03-24T11:04:49;12.90;81.90
43920;DHT22;29578;51.946;5.874;2023-03-24T11:07:17;12.80;81.90
43920;DHT22;29578;51.946;5.874;2023-03-24T11:09:45;13.00;82.20
43920;DHT22;29578;51.946;5.874;2023-03-24T11:12:21;13.10;81.70
43920;DHT22;29578;51.946;5.874;2023-03-24T11:14:47;13.40;81.50
43920;DHT22;29578;51.946;5.874;2023-03-24T11:17:13;13.50;81.10
43920;DHT22;29578;51.946;5.874;2023-03-24T11:19:49;13.60;80.50
43920;DHT22;29578;51.946;5.874;2023-03-24T11:22:15;13.60;80.00
43920;DHT22;29578;51.946;5.874;2023-03-24T11:24:41;13.60;80.50
43920;DHT22;29578;51.946;5.874;2023-03-24T11:27:08;13.50;79.90
43920;DHT22;29578;51.946;5.874;2023-03-24T11:29:39;13.40;80.20
43920;DHT22;29578;51.946;5.874;2023-03-24T11:32:10;13.30;80.60
43920;DHT22;29578;51.946;5.874;2023-03-24T11:34:38;13.20;81.00
43920;DHT22;29578;51.946;5.874;2023-03-24T11:37:11;13.20;81.30
43920;DHT22;29578;51.946;5.874;2023-03-24T11:39:37;13.20;81.60
43920;DHT22;29578;51.946;5.874;2023-03-24T11:42:14;13.20;81.50
43920;DHT22;29578;51.946;5.874;2023-03-24T11:44:42;13.20;81.40
43920;DHT22;29578;51.946;5.874;2023-03-24T11:49:51;13.60;81.50
43920;DHT22;29578;51.946;5.874;2023-03-24T11:52:19;13.80;81.10
43920;DHT22;29578;51.946;5.874;2023-03-24T11:54:46;14.00;80.70
43920;DHT22;29578;51.946;5.874;2023-03-24T11:57:12;14.10;80.40
43920;DHT22;29578;51.946;5.874;2023-03-24T11:59:41;14.00;79.90
43920;DHT22;29578;51.946;5.874;2023-03-24T12:02:11;13.80;80.10
43920;DHT22;29578;51.946;5.874;2023-03-24T12:04:44;13.60;80.60
43920;DHT22;29578;51.946;5.874;2023-03-24T12:09:54;13.30;81.80
43920;DHT22;29578;51.946;5.874;2023-03-24T12:15:07;12.80;82.90
43920;DHT22;29578;51.946;5.874;2023-03-24T12:17:41;12.50;83.50
43920;DHT22;29578;51.946;5.874;2023-03-24T12:20:15;12.30;84.00
43920;DHT22;29578;51.946;5.874;2023-03-24T12:22:55;12.20;84.50
43920;DHT22;29578;51.946;5.874;2023-03-24T12:25:41;11.90;84.80
43920;DHT22;29578;51.946;5.874;2023-03-24T12:28:15;11.70;85.40
43920;DHT22;29578;51.946;5.874;2023-03-24T12:30:46;11.80;85.90
43920;DHT22;29578;51.946;5.874;2023-03-24T12:33:22;11.60;85.90
43920;DHT22;29578;51.946;5.874;2023-03-24T12:36:01;11.50;85.90
43920;DHT22;29578;51.946;5.874;2023-03-24T12:38:35;11.30;86.00
43920;DHT22;29578;51.946;5.874;2023-03-24T12:43:55;11.20;86.50
43920;DHT22;29578;51.946;5.874;2023-03-24T12:46:30;11.10;86.70
43920;DHT22;29578;51.946;5.874;2023-03-24T12:51:46;11.30;86.80
43920;DHT22;29578;51.946;5.874;2023-03-24T12:54:19;11.60;86.50
43920;DHT22;29578;51.946;5.874;2023-03-24T12:56:47;12.00;86.00
43920;DHT22;29578;51.946;5.874;2023-03-24T12:59:14;12.50;85.20
43920;DHT22;29578;51.946;5.874;2023-03-24T13:01:42;12.60;84.10
43920;DHT22;29578;51.946;5.874;2023-03-24T13:04:14;12.80;83.80
43920;DHT22;29578;51.946;5.874;2023-03-24T13:06:43;13.00;82.80
43920;DHT22;29578;51.946;5.874;2023-03-24T13:09:13;13.10;82.50
43920;DHT22;29578;51.946;5.874;2023-03-24T13:11:52;13.20;82.80
43920;DHT22;29578;51.946;5.874;2023-03-24T13:14:21;13.40;82.50
43920;DHT22;29578;51.946;5.874;2023-03-24T13:16:48;13.50;82.10
43920;DHT22;29578;51.946;5.874;2023-03-24T13:19:16;13.70;81.60
43920;DHT22;29578;51.946;5.874;2023-03-24T13:21:43;13.70;81.50
43920;DHT22;29578;51.946;5.874;2023-03-24T13:24:11;13.90;81.30
43920;DHT22;29578;51.946;5.874;2023-03-24T13:26:37;13.90;81.00
43920;DHT22;29578;51.946;5.874;2023-03-24T13:29:09;13.60;81.10
43920;DHT22;29578;51.946;5.874;2023-03-24T13:31:44;13.40;81.50
43920;DHT22;29578;51.946;5.874;2023-03-24T13:34:19;13.30;82.20
43920;DHT22;29578;51.946;5.874;2023-03-24T13:36:49;13.20;82.60
43920;DHT22;29578;51.946;5.874;2023-03-24T13:39:16;12.90;83.10
43920;DHT22;29578;51.946;5.874;2023-03-24T13:41:46;12.70;83.60
43920;DHT22;29578;51.946;5.874;2023-03-24T13:44:21;12.30;84.30
43920;DHT22;29578;51.946;5.874;2023-03-24T13:49:32;11.90;85.60
43920;DHT22;29578;51.946;5.874;2023-03-24T13:52:01;11.70;86.20
43920;DHT22;29578;51.946;5.874;2023-03-24T13:54:27;11.60;86.50
43920;DHT22;29578;51.946;5.874;2023-03-24T13:57:02;11.50;86.70
43920;DHT22;29578;51.946;5.874;2023-03-24T13:59:30;11.40;86.80
43920;DHT22;29578;51.946;5.874;2023-03-24T14:04:46;11.30;87.10
43920;DHT22;29578;51.946;5.874;2023-03-24T14:09:57;11.30;86.90
43920;DHT22;29578;51.946;5.874;2023-03-24T14:12:23;11.30;86.80
43920;DHT22;29578;51.946;5.874;2023-03-24T14:15:12;11.30;86.80
43920;DHT22;29578;51.946;5.874;2023-03-24T14:17:34;11.20;87.40
43920;DHT22;29578;51.946;5.874;2023-03-24T14:20:15;11.20;86.90
43920;DHT22;29578;51.946;5.874;2023-03-24T14:22:47;11.20;86.80
43920;DHT22;29578;51.946;5.874;2023-03-24T14:25:19;11.20;86.70
43920;DHT22;29578;51.946;5.874;2023-03-24T14:27:47;11.20;86.60
43920;DHT22;29578;51.946;5.874;2023-03-24T14:30:15;11.20;86.50
43920;DHT22;29578;51.946;5.874;2023-03-24T14:32:44;11.40;86.50
43920;DHT22;29578;51.946;5.874;2023-03-24T14:35:19;11.20;86.40
43920;DHT22;29578;51.946;5.874;2023-03-24T14:37:48;11.20;86.30
43920;DHT22;29578;51.946;5.874;2023-03-24T14:40:25;11.20;86.40
43920;DHT22;29578;51.946;5.874;2023-03-24T14:42:53;11.20;86.50
43920;DHT22;29578;51.946;5.874;2023-03-24T14:45:37;11.20;86.60
43920;DHT22;29578;51.946;5.874;2023-03-24T14:48:02;11.30;86.60
43920;DHT22;29578;51.946;5.874;2023-03-24T14:50:29;11.50;86.50
43920;DHT22;29578;51.946;5.874;2023-03-24T14:52:57;11.60;85.90
43920;DHT22;29578;51.946;5.874;2023-03-24T14:55:23;11.70;85.70
43920;DHT22;29578;51.946;5.874;2023-03-24T14:57:52;11.80;85.30
43920;DHT22;29578;51.946;5.874;2023-03-24T15:02:59;11.90;85.30
43920;DHT22;29578;51.946;5.874;2023-03-24T15:05:29;12.00;85.30
43920;DHT22;29578;51.946;5.874;2023-03-24T15:11:09;12.10;85.00
43920;DHT22;29578;51.946;5.874;2023-03-24T15:13:26;12.10;84.90
43920;DHT22;29578;51.946;5.874;2023-03-24T15:15:52;12.30;84.70
43920;DHT22;29578;51.946;5.874;2023-03-24T15:18:18;12.50;84.80
43920;DHT22;29578;51.946;5.874;2023-03-24T15:20:44;12.50;84.90
43920;DHT22;29578;51.946;5.874;2023-03-24T15:23:15;13.00;84.00
43920;DHT22;29578;51.946;5.874;2023-03-24T15:25:43;13.40;82.20
43920;DHT22;29578;51.946;5.874;2023-03-24T15:30:47;13.30;82.10
43920;DHT22;29578;51.946;5.874;2023-03-24T15:33:13;13.30;82.40
43920;DHT22;29578;51.946;5.874;2023-03-24T15:35:39;13.60;82.10
43920;DHT22;29578;51.946;5.874;2023-03-24T15:38:05;14.10;81.10
43920;DHT22;29578;51.946;5.874;2023-03-24T15:40:32;14.50;79.80
43920;DHT22;29578;51.946;5.874;2023-03-24T15:42:59;14.90;78.90
43920;DHT22;29578;51.946;5.874;2023-03-24T15:45:26;15.30;77.10
43920;DHT22;29578;51.946;5.874;2023-03-24T15:47:52;14.90;76.70
43920;DHT22;29578;51.946;5.874;2023-03-24T15:50:34;14.30;77.90
43920;DHT22;29578;51.946;5.874;2023-03-24T15:53:04;13.80;79.50
43920;DHT22;29578;51.946;5.874;2023-03-24T15:55:31;13.30;81.20
43920;DHT22;29578;51.946;5.874;2023-03-24T15:57:59;13.20;82.50
43920;DHT22;29578;51.946;5.874;2023-03-24T16:00:27;13.30;83.50
43920;DHT22;29578;51.946;5.874;2023-03-24T16:02:54;13.50;82.50
43920;DHT22;29578;51.946;5.874;2023-03-24T16:05:22;13.30;82.10
43920;DHT22;29578;51.946;5.874;2023-03-24T16:07:57;13.10;82.50
43920;DHT22;29578;51.946;5.874;2023-03-24T16:10:27;13.10;83.00
43920;DHT22;29578;51.946;5.874;2023-03-24T16:13:13;13.00;83.10
43920;DHT22;29578;51.946;5.874;2023-03-24T16:15:39;12.90;83.80
43920;DHT22;29578;51.946;5.874;2023-03-24T16:18:05;13.20;84.10
43920;DHT22;29578;51.946;5.874;2023-03-24T16:20:30;13.20;82.40
43920;DHT22;29578;51.946;5.874;2023-03-24T16:22:56;13.20;82.40
43920;DHT22;29578;51.946;5.874;2023-03-24T16:25:21;13.30;82.90
43920;DHT22;29578;51.946;5.874;2023-03-24T16:27:47;13.30;82.70
43920;DHT22;29578;51.946;5.874;2023-03-24T16:30:21;13.30;82.30
43920;DHT22;29578;51.946;5.874;2023-03-24T16:32:49;13.30;82.30
43920;DHT22;29578;51.946;5.874;2023-03-24T16:35:14;13.10;82.00
43920;DHT22;29578;51.946;5.874;2023-03-24T16:37:40;13.10;82.40
43920;DHT22;29578;51.946;5.874;2023-03-24T16:40:14;12.90;82.90
43920;DHT22;29578;51.946;5.874;2023-03-24T16:42:42;12.60;83.50
43920;DHT22;29578;51.946;5.874;2023-03-24T16:45:08;12.50;84.00